首页
METAR-TAF:

METAR-TAF

机场 :

香港國際機場

香港, 中华人民共和国

纬度: 22-19N, 经度: 113-55E, 海拔: 9米

当前天气观测

该预报发布于31分钟前的15:00 UTC
风速5节,风向东转东南,在南转西南之间变化
温度 28°C
湿度 84%
气压 1001 hPa
能见度10公里或以上
少量云层高于1800英尺
小阵雨

METAR: VHHH 161500Z 12005KT 090V200 9999 -SHRA FEW018 28/25 Q1001 NOSIG

时间: 23:31 (15:31 UTC)

预报

该预报发布于4小时和31分钟前的11:00 UTC
预报有效从16日的 12点(UTC)到 17日的 18点(UTC)
风速10节,风向南转南东
能见度10公里或以上
少量云层高于1500英尺
散云层高于3000英尺
短暂存在
从 16日的 12点(UTC)到 16日的 22点(UTC)
风速5节,风向多变
短暂存在
从 16日的 16点(UTC)到 16日的 22点(UTC)
能見度: 4000
少量云层高于1200英尺, 积雨云.
散云层高于2000英尺
阵雨
短暂存在
从 16日的 22点(UTC)到 17日的 04点(UTC)
风速15节,风向南转西南,有时为25节阵风
能見度: 3000
少量云层高于1000英尺, 积雨云.
散云层高于2000英尺
雷暴, 小雨, 阵雨
短暂存在
从 17日的 15点(UTC)到 17日的 18点(UTC)
能見度: 4000
少量云层高于1200英尺, 积雨云.
散云层高于2000英尺
阵雨

TAF: VHHH 161100Z 1612/1718 15010KT 9999 FEW015 SCT030 TX31/1706Z TN27/1622Z TEMPO 1612/1622 VRB05KT TEMPO 1616/1622 4000 SHRA FEW012CB SCT020 TEMPO 1622/1704 20015G25KT 3000 -TSRA SHRA FEW010CB SCT020 TEMPO 1715/1718 4000 SHRA FEW012CB SCT020

超过4000个机场的气象观测和天气预报(METAR&TAF报告)。

可查询的气象台以黄色和红色小点在地图上表示。

将鼠标移到小点上方,可查看气象台名称。

然后点击查看天气观测和预报。

如需切换地图:点击带黑十字的绿色按钮放大地图;点击带横线的绿色按钮缩小地图;或者点击绿色箭头查看邻近地区的地图。


METAR-TAF: